Terminal Aerodrome Forecast
Issued by NWS

Home | Current Version | Previous Version | Text Only | Print | Product List | Glossary Off
Versions: 1 2 3 4 5 6 7 8 9 10 11 12 13 14

000
FTUS43 KMPX 021120
TAFRNH
TAF
KRNH 021120Z 0212/0312 19004KT P6SM SKC
     FM021600 21010KT P6SM SCT060 SCT250
     FM030100 17006KT P6SM SCT150=

USA.gov is the U.S. government's official web portal to all federal, state and local government web resources and services.